Time;durP1;ratioP1;P1;durP2;ratioP2;P2;SDS_P1;SDS_P2;PMS_P1;PMS_P2;Temp;Humidity;BMP_temperature;BMP_pressure;BME280_temperature;BME280_humidity;BME280_pressure;Samples;Min_cycle;Max_cycle;Signal;HPM_P1;HPM_P2
2023/10/16 00:02:12;;;;;;;;;;;3.10;99.90;;;;;;5093202;28;19920;-72
2023/10/16 00:04:43;;;;;;;;;;;3.00;99.90;;;;;;5091379;28;19920;-72
2023/10/16 00:07:11;;;;;;;;;;;3.00;99.90;;;;;;5092939;28;19927;-72
2023/10/16 00:09:39;;;;;;;;;;;3.00;99.90;;;;;;5096718;28;19958;-71
2023/10/16 00:12:06;;;;;;;;;;;3.00;99.90;;;;;;5104753;28;19920;-71
2023/10/16 00:14:33;;;;;;;;;;;2.90;99.90;;;;;;5104555;28;19958;-72
2023/10/16 00:17:01;;;;;;;;;;;2.90;99.90;;;;;;5100776;28;19920;-71
2023/10/16 00:19:33;;;;;;;;;;;2.90;99.90;;;;;;5097802;28;19991;-72
2023/10/16 00:22:00;;;;;;;;;;;2.90;99.90;;;;;;5094026;28;19959;-71
2023/10/16 00:24:28;;;;;;;;;;;2.90;99.90;;;;;;5093732;28;19955;-72
2023/10/16 00:26:55;;;;;;;;;;;2.80;99.90;;;;;;5102994;28;19987;-72
2023/10/16 00:29:24;;;;;;;;;;;2.80;99.90;;;;;;5104349;28;19920;-72
2023/10/16 00:31:52;;;;;;;;;;;2.80;99.90;;;;;;5104182;28;20265;-71
2023/10/16 00:34:23;;;;;;;;;;;2.80;99.90;;;;;;5104151;28;19926;-72
2023/10/16 00:36:51;;;;;;;;;;;2.80;99.90;;;;;;5103876;28;19983;-72
2023/10/16 00:39:19;;;;;;;;;;;2.70;99.90;;;;;;5103956;28;19920;-71
2023/10/16 00:41:46;;;;;;;;;;;2.70;99.90;;;;;;5104225;28;20160;-71
2023/10/16 00:44:14;;;;;;;;;;;2.70;99.90;;;;;;5104183;28;19920;-72
2023/10/16 00:46:45;;;;;;;;;;;2.60;99.90;;;;;;5103111;28;20388;-71
2023/10/16 00:49:12;;;;;;;;;;;2.60;99.90;;;;;;5104458;28;19920;-72
2023/10/16 00:51:41;;;;;;;;;;;2.60;99.90;;;;;;5104485;28;19920;-72
2023/10/16 00:54:16;;;;;;;;;;;2.60;99.90;;;;;;5104088;28;19970;-71
2023/10/16 00:56:42;;;;;;;;;;;2.50;99.90;;;;;;5101289;28;19920;-72
2023/10/16 00:59:09;;;;;;;;;;;2.50;99.90;;;;;;5103916;28;19991;-71
2023/10/16 01:01:43;;;;;;;;;;;2.50;99.90;;;;;;5104033;28;19920;-72
2023/10/16 01:04:10;;;;;;;;;;;2.50;99.90;;;;;;5104123;28;19927;-72
2023/10/16 01:06:37;;;;;;;;;;;2.50;99.90;;;;;;5103194;28;19999;-72
2023/10/16 01:09:09;;;;;;;;;;;2.50;99.90;;;;;;5104044;28;19927;-71
2023/10/16 01:11:37;;;;;;;;;;;2.40;99.90;;;;;;5104013;28;19957;-72
2023/10/16 01:14:04;;;;;;;;;;;2.50;99.90;;;;;;5104310;28;19927;-72
2023/10/16 01:16:30;;;;;;;;;;;2.50;99.90;;;;;;5101172;28;19958;-72
2023/10/16 01:19:00;;;;;;;;;;;2.40;99.90;;;;;;5097247;28;19987;-72
2023/10/16 01:21:27;;;;;;;;;;;2.40;99.90;;;;;;5099258;28;19947;-72
2023/10/16 01:23:55;;;;;;;;;;;2.40;99.90;;;;;;5103436;28;19990;-72
2023/10/16 01:26:24;;;;;;;;;;;2.40;99.90;;;;;;5102877;28;20114;-72
2023/10/16 01:28:51;;;;;;;;;;;2.40;99.90;;;;;;5104383;28;20213;-73
2023/10/16 01:31:19;;;;;;;;;;;2.30;99.90;;;;;;5107902;28;19988;-72
2023/10/16 01:33:46;;;;;;;;;;;2.30;99.90;;;;;;5107541;28;20214;-72
2023/10/16 01:36:13;;;;;;;;;;;2.30;99.90;;;;;;5097080;28;19987;-72
2023/10/16 01:38:40;;;;;;;;;;;2.30;99.90;;;;;;5100208;28;19927;-72
2023/10/16 01:41:09;;;;;;;;;;;2.30;99.90;;;;;;5100341;28;19956;-71
2023/10/16 01:43:37;;;;;;;;;;;2.30;99.90;;;;;;5107325;28;19962;-72
2023/10/16 01:46:07;;;;;;;;;;;2.30;99.90;;;;;;5103537;28;19979;-72
2023/10/16 01:48:34;;;;;;;;;;;2.30;99.90;;;;;;5107567;28;19920;-72
2023/10/16 01:51:01;;;;;;;;;;;2.30;99.90;;;;;;5107567;28;19960;-71
2023/10/16 01:53:32;;;;;;;;;;;2.30;99.90;;;;;;5107188;28;20308;-72
2023/10/16 01:56:04;;;;;;;;;;;2.20;99.90;;;;;;5106823;28;19966;-72
2023/10/16 01:58:32;;;;;;;;;;;2.30;99.90;;;;;;5100548;28;19988;-72
2023/10/16 02:00:59;;;;;;;;;;;2.20;99.90;;;;;;5097296;28;19952;-71
2023/10/16 02:03:27;;;;;;;;;;;2.20;99.90;;;;;;5100515;28;19975;-72
2023/10/16 02:05:54;;;;;;;;;;;2.30;99.90;;;;;;5106629;28;20117;-72
2023/10/16 02:08:21;;;;;;;;;;;2.20;99.90;;;;;;5107261;28;19926;-71
2023/10/16 02:10:49;;;;;;;;;;;2.20;99.90;;;;;;5102240;28;19928;-72
2023/10/16 02:13:16;;;;;;;;;;;2.10;99.90;;;;;;5094911;28;19958;-72
2023/10/16 02:15:44;;;;;;;;;;;2.10;99.90;;;;;;5093928;28;19987;-72
2023/10/16 02:18:18;;;;;;;;;;;2.10;99.90;;;;;;5101929;28;19961;-72
2023/10/16 02:20:45;;;;;;;;;;;2.00;99.90;;;;;;5106649;28;19943;-72
2023/10/16 02:23:12;;;;;;;;;;;2.10;99.90;;;;;;5098075;28;19978;-71
2023/10/16 02:25:39;;;;;;;;;;;2.00;99.90;;;;;;5103344;28;19952;-72
2023/10/16 02:28:07;;;;;;;;;;;2.60;99.90;;;;;;5106732;28;19920;-72
2023/10/16 02:30:38;;;;;;;;;;;2.00;99.90;;;;;;5106633;28;19942;-72
2023/10/16 02:33:14;;;;;;;;;;;2.00;99.90;;;;;;5104143;28;20232;-72
2023/10/16 02:35:47;;;;;;;;;;;1.90;99.90;;;;;;5101000;28;19943;-73
2023/10/16 02:38:14;;;;;;;;;;;1.90;99.90;;;;;;5101600;28;20160;-72
2023/10/16 02:40:43;;;;;;;;;;;1.90;99.90;;;;;;5104984;28;20378;-72
2023/10/16 02:43:14;;;;;;;;;;;1.90;99.90;;;;;;5106258;28;20202;-72
2023/10/16 02:45:42;;;;;;;;;;;1.80;99.90;;;;;;5105930;28;19926;-72
2023/10/16 02:48:10;;;;;;;;;;;1.80;99.90;;;;;;5106133;28;20094;-73
2023/10/16 02:50:41;;;;;;;;;;;1.80;99.90;;;;;;5106039;28;19920;-71
2023/10/16 02:53:08;;;;;;;;;;;1.80;99.90;;;;;;5099023;28;19920;-73
2023/10/16 02:55:34;;;;;;;;;;;1.80;99.90;;;;;;5105803;28;19983;-70
2023/10/16 02:58:04;;;;;;;;;;;1.80;99.90;;;;;;5105871;28;19987;-71
2023/10/16 03:00:36;;;;;;;;;;;1.80;99.90;;;;;;5105846;28;19959;-72
2023/10/16 03:03:05;;;;;;;;;;;1.80;99.90;;;;;;5103087;28;19927;-72
2023/10/16 03:05:33;;;;;;;;;;;1.80;99.90;;;;;;5105257;28;19927;-71
2023/10/16 03:08:00;;;;;;;;;;;1.80;99.90;;;;;;5106057;28;19958;-71
2023/10/16 03:10:30;;;;;;;;;;;1.80;99.90;;;;;;5106030;28;19982;-72
2023/10/16 03:12:59;;;;;;;;;;;1.70;99.90;;;;;;5106016;28;20095;-72
2023/10/16 03:15:29;;;;;;;;;;;1.70;99.90;;;;;;5100666;28;19920;-72
2023/10/16 03:17:56;;;;;;;;;;;1.70;99.90;;;;;;5105495;28;19928;-73
2023/10/16 03:20:23;;;;;;;;;;;1.70;99.90;;;;;;5105765;28;20146;-73
2023/10/16 03:22:51;;;;;;;;;;;1.70;99.90;;;;;;5105829;28;19920;-72
2023/10/16 03:25:30;;;;;;;;;;;1.70;99.90;;;;;;5105088;28;20155;-72
2023/10/16 03:27:57;;;;;;;;;;;1.60;99.90;;;;;;5105573;28;20113;-72
2023/10/16 03:30:26;;;;;;;;;;;1.60;99.90;;;;;;5105382;28;19920;-72
2023/10/16 03:32:54;;;;;;;;;;;1.60;99.90;;;;;;5105720;28;19920;-73
2023/10/16 03:35:26;;;;;;;;;;;1.60;99.90;;;;;;5096845;28;19939;-72
2023/10/16 03:37:54;;;;;;;;;;;1.60;99.90;;;;;;5094388;28;19952;-72
2023/10/16 03:40:24;;;;;;;;;;;1.60;99.90;;;;;;5098030;28;19920;-72
2023/10/16 03:42:51;;;;;;;;;;;1.60;99.90;;;;;;5096184;28;19987;-72
2023/10/16 03:45:20;;;;;;;;;;;1.50;99.90;;;;;;5100331;28;19963;-72
2023/10/16 03:47:50;;;;;;;;;;;1.50;99.90;;;;;;5104989;28;19920;-72
2023/10/16 03:50:23;;;;;;;;;;;1.50;99.90;;;;;;5105169;28;19970;-72
2023/10/16 03:52:49;;;;;;;;;;;1.50;99.90;;;;;;5104868;28;20210;-72
2023/10/16 03:55:24;;;;;;;;;;;1.50;99.90;;;;;;5104653;28;19954;-72
2023/10/16 03:57:51;;;;;;;;;;;1.50;99.90;;;;;;5105052;28;20090;-73
2023/10/16 04:00:18;;;;;;;;;;;1.50;99.90;;;;;;5104793;28;19927;-72
2023/10/16 04:02:46;;;;;;;;;;;1.50;99.90;;;;;;5104834;28;19920;-72
2023/10/16 04:05:29;;;;;;;;;;;1.40;99.90;;;;;;5104170;28;19995;-72
2023/10/16 04:07:56;;;;;;;;;;;1.50;99.90;;;;;;5104688;28;19995;-72
2023/10/16 04:10:28;;;;;;;;;;;1.40;99.90;;;;;;5104955;28;19970;-72
2023/10/16 04:12:55;;;;;;;;;;;1.40;99.90;;;;;;5104891;28;19959;-73
2023/10/16 04:15:48;;;;;;;;;;;1.40;99.90;;;;;;5101600;28;20221;-72
2023/10/16 04:18:27;;;;;;;;;;;1.40;99.90;;;;;;5104172;28;19931;-73
2023/10/16 04:20:57;;;;;;;;;;;1.40;99.90;;;;;;5104757;28;19951;-72
2023/10/16 04:23:29;;;;;;;;;;;1.40;99.90;;;;;;5104177;28;19919;-72
2023/10/16 04:31:44;;;;;;;;;;;1.30;99.90;;;;;;5104224;28;19991;-73
2023/10/16 04:34:24;;;;;;;;;;;1.20;99.90;;;;;;5100681;28;19927;-73
2023/10/16 04:36:53;;;;;;;;;;;1.20;99.90;;;;;;5095116;28;19955;-72
2023/10/16 04:45:00;;;;;;;;;;;1.20;99.90;;;;;;5103487;28;19926;-72
2023/10/16 04:47:28;;;;;;;;;;;1.20;99.90;;;;;;5104246;28;20113;-73
2023/10/16 04:50:07;;;;;;;;;;;1.10;99.90;;;;;;5103988;28;19956;-72
2023/10/16 04:55:42;;;;;;;;;;;1.10;99.90;;;;;;5102015;28;19969;-73
2023/10/16 05:00:56;;;;;;;;;;;1.10;99.90;;;;;;5104049;28;20206;-73
2023/10/16 05:03:23;;;;;;;;;;;1.10;99.90;;;;;;5098891;28;19920;-73
2023/10/16 05:06:06;;;;;;;;;;;1.10;99.90;;;;;;5102068;28;19968;-72
2023/10/16 05:08:38;;;;;;;;;;;1.10;99.90;;;;;;5100193;28;19955;-72
2023/10/16 05:16:38;;;;;;;;;;;1.00;99.90;;;;;;5096865;28;19942;-72
2023/10/16 05:19:04;;;;;;;;;;;1.00;99.90;;;;;;5099132;28;19942;-72
2023/10/16 05:22:02;;;;;;;;;;;1.00;99.90;;;;;;5103977;28;19916;-72
2023/10/16 06:14:12;;;;;;;;;;;0.90;99.90;;;;;;5103380;28;19923;-73
2023/10/16 06:16:39;;;;;;;;;;;0.90;99.90;;;;;;5103732;28;19927;-73
2023/10/16 06:19:14;;;;;;;;;;;0.90;99.90;;;;;;5100126;28;19943;-73
2023/10/16 06:21:45;;;;;;;;;;;0.90;99.90;;;;;;5109445;28;19991;-73
2023/10/16 06:24:25;;;;;;;;;;;0.90;99.90;;;;;;5128882;27;19920;-73
2023/10/16 06:26:52;;;;;;;;;;;0.90;99.90;;;;;;5126639;27;19919;-74
2023/10/16 06:29:19;;;;;;;;;;;0.90;99.90;;;;;;5122129;28;19951;-74
2023/10/16 06:31:50;;;;;;;;;;;0.90;99.90;;;;;;5117727;28;20567;-74
2023/10/16 06:34:18;;;;;;;;;;;0.90;99.90;;;;;;5118401;28;19920;-74
2023/10/16 06:36:45;;;;;;;;;;;0.90;99.90;;;;;;5121948;28;19979;-74
2023/10/16 06:39:22;;;;;;;;;;;0.90;99.90;;;;;;5119636;28;20210;-74
2023/10/16 06:41:53;;;;;;;;;;;0.90;99.90;;;;;;5123673;28;19927;-74
2023/10/16 06:44:21;;;;;;;;;;;0.90;99.90;;;;;;5119978;28;19938;-74
2023/10/16 06:46:49;;;;;;;;;;;0.90;99.90;;;;;;5124789;28;20117;-74
2023/10/16 06:49:26;;;;;;;;;;;0.90;99.90;;;;;;5121875;28;19927;-74
2023/10/16 06:51:53;;;;;;;;;;;0.90;99.90;;;;;;5119741;28;19920;-74
2023/10/16 06:54:20;;;;;;;;;;;0.90;99.90;;;;;;5117715;28;20264;-74
2023/10/16 06:56:46;;;;;;;;;;;0.90;99.90;;;;;;5118308;28;19951;-74
2023/10/16 06:59:16;;;;;;;;;;;0.90;99.90;;;;;;5117744;28;19959;-74
2023/10/16 07:01:46;;;;;;;;;;;0.90;99.90;;;;;;5113027;28;19927;-74
2023/10/16 07:04:14;;;;;;;;;;;0.90;99.90;;;;;;5117948;28;19983;-74
2023/10/16 07:06:44;;;;;;;;;;;1.00;99.90;;;;;;5121717;28;19955;-74
2023/10/16 07:09:12;;;;;;;;;;;1.00;99.90;;;;;;5120204;28;19920;-73
2023/10/16 07:11:42;;;;;;;;;;;1.10;99.90;;;;;;5120935;28;19920;-74
2023/10/16 07:14:12;;;;;;;;;;;1.10;99.90;;;;;;5119101;28;19920;-74
2023/10/16 07:16:39;;;;;;;;;;;1.10;99.90;;;;;;5117757;28;19926;-74
2023/10/16 07:19:07;;;;;;;;;;;1.20;99.90;;;;;;5121847;28;19957;-74
2023/10/16 07:21:33;;;;;;;;;;;1.20;99.90;;;;;;5118762;28;19951;-74
2023/10/16 07:24:03;;;;;;;;;;;1.10;99.90;;;;;;5115100;28;19920;-74
2023/10/16 07:26:29;;;;;;;;;;;1.10;99.90;;;;;;5119260;28;19983;-74
2023/10/16 07:28:58;;;;;;;;;;;1.20;99.90;;;;;;5117710;28;19991;-73
2023/10/16 07:31:25;;;;;;;;;;;1.30;99.90;;;;;;5115971;28;19928;-74
2023/10/16 07:33:54;;;;;;;;;;;1.30;99.90;;;;;;5116392;28;20264;-74
2023/10/16 07:36:21;;;;;;;;;;;1.40;99.90;;;;;;5118301;28;19919;-74
2023/10/16 07:38:50;;;;;;;;;;;1.50;99.90;;;;;;5116894;28;19955;-74
2023/10/16 07:41:19;;;;;;;;;;;1.50;99.90;;;;;;5123128;27;20121;-74
2023/10/16 07:43:46;;;;;;;;;;;1.50;99.90;;;;;;5113875;28;20144;-74
2023/10/16 07:46:28;;;;;;;;;;;1.60;99.90;;;;;;5116345;28;19963;-74
2023/10/16 07:48:54;;;;;;;;;;;1.70;99.90;;;;;;5121341;28;19927;-74
2023/10/16 07:51:24;;;;;;;;;;;1.80;99.90;;;;;;5121835;28;19962;-74
2023/10/16 07:53:50;;;;;;;;;;;1.90;99.90;;;;;;5125225;28;19920;-74
2023/10/16 07:56:25;;;;;;;;;;;2.00;99.90;;;;;;5121104;28;19927;-74
2023/10/16 07:58:54;;;;;;;;;;;2.10;99.90;;;;;;5116166;28;19965;-74
2023/10/16 08:01:36;;;;;;;;;;;2.20;99.90;;;;;;5121643;28;19961;-74
2023/10/16 08:04:03;;;;;;;;;;;2.30;99.90;;;;;;5119325;27;19919;-74
2023/10/16 08:06:30;;;;;;;;;;;2.40;99.90;;;;;;5116759;28;19920;-74
2023/10/16 08:11:42;;;;;;;;;;;2.60;99.90;;;;;;5125841;27;19915;-74
2023/10/16 08:14:09;;;;;;;;;;;2.60;99.90;;;;;;5121501;28;19979;-74
2023/10/16 08:16:38;;;;;;;;;;;2.80;99.90;;;;;;5117405;28;19919;-73
2023/10/16 08:19:14;;;;;;;;;;;2.80;99.90;;;;;;5114091;28;19928;-76
2023/10/16 08:21:42;;;;;;;;;;;3.00;99.90;;;;;;5125126;27;19941;-71
2023/10/16 08:24:12;;;;;;;;;;;3.20;99.90;;;;;;5122252;27;19920;-73
2023/10/16 08:26:44;;;;;;;;;;;3.30;99.90;;;;;;5120845;28;19978;-73
2023/10/16 08:29:18;;;;;;;;;;;3.50;99.90;;;;;;5123315;27;19991;-73
2023/10/16 08:31:45;;;;;;;;;;;3.70;99.90;;;;;;5115345;27;19920;-73
2023/10/16 08:34:12;;;;;;;;;;;3.80;99.90;;;;;;5123590;27;20094;-73
2023/10/16 08:36:39;;;;;;;;;;;4.00;99.90;;;;;;5120264;28;19920;-73
2023/10/16 08:39:09;;;;;;;;;;;4.20;99.90;;;;;;5123648;27;19986;-73
2023/10/16 08:41:43;;;;;;;;;;;4.30;99.90;;;;;;5117095;28;19926;-73
2023/10/16 08:44:15;;;;;;;;;;;4.40;99.90;;;;;;5120415;28;19982;-73
2023/10/16 08:46:52;;;;;;;;;;;4.50;99.90;;;;;;5116347;28;19961;-73
2023/10/16 08:49:22;;;;;;;;;;;4.70;99.90;;;;;;5119700;28;19920;-73
2023/10/16 08:51:49;;;;;;;;;;;4.90;99.90;;;;;;5114467;28;20099;-73
2023/10/16 08:57:09;;;;;;;;;;;5.20;99.90;;;;;;5080233;28;19947;-73
2023/10/16 08:59:37;;;;;;;;;;;5.30;99.90;;;;;;5119516;28;19996;-74
2023/10/16 09:02:07;;;;;;;;;;;5.40;99.90;;;;;;5113835;28;19920;-73
2023/10/16 09:04:36;;;;;;;;;;;5.40;99.90;;;;;;5119787;28;19963;-74
2023/10/16 09:07:02;;;;;;;;;;;5.50;99.90;;;;;;5109017;28;19924;-74
2023/10/16 09:09:31;;;;;;;;;;;5.60;99.90;;;;;;5121552;28;20270;-73
2023/10/16 09:12:10;;;;;;;;;;;5.70;99.90;;;;;;5121445;28;19995;-73
2023/10/16 09:14:38;;;;;;;;;;;5.80;99.90;;;;;;5116319;28;19928;-73
2023/10/16 09:17:06;;;;;;;;;;;5.90;99.90;;;;;;5119695;28;20453;-73
2023/10/16 09:19:34;;;;;;;;;;;6.00;99.90;;;;;;5115826;28;20266;-73
2023/10/16 09:22:04;;;;;;;;;;;6.10;99.90;;;;;;5115885;28;19920;-75
2023/10/16 09:24:31;;;;;;;;;;;6.20;99.90;;;;;;5116779;28;19928;-74
2023/10/16 09:26:59;;;;;;;;;;;6.30;99.90;;;;;;5115883;28;19920;-74
2023/10/16 09:29:25;;;;;;;;;;;6.40;99.90;;;;;;5116717;28;20109;-73
2023/10/16 09:31:54;;;;;;;;;;;6.50;99.90;;;;;;5120462;28;19951;-73
2023/10/16 09:34:22;;;;;;;;;;;6.60;99.90;;;;;;5116134;28;19962;-73
2023/10/16 09:37:14;;;;;;;;;;;6.70;99.90;;;;;;5117422;28;19927;-73
2023/10/16 09:39:36;;;;;;;;;;;6.80;99.90;;;;;;5116427;28;19973;-73
2023/10/16 09:42:05;;;;;;;;;;;6.80;99.90;;;;;;5118537;28;19947;-73
2023/10/16 09:44:37;;;;;;;;;;;6.90;99.90;;;;;;5115582;28;20209;-73
2023/10/16 09:49:46;;;;;;;;;;;7.20;99.90;;;;;;5122635;28;20209;-73
2023/10/16 09:52:17;;;;;;;;;;;7.40;99.90;;;;;;5119223;28;19963;-73
2023/10/16 09:54:45;;;;;;;;;;;7.50;99.90;;;;;;5123908;28;20109;-74
2023/10/16 09:57:14;;;;;;;;;;;7.50;99.90;;;;;;5123722;28;20218;-74
2023/10/16 09:59:41;;;;;;;;;;;7.70;99.90;;;;;;5119675;28;20231;-74
2023/10/16 10:02:16;;;;;;;;;;;7.80;99.90;;;;;;5124159;28;19931;-73
2023/10/16 10:04:49;;;;;;;;;;;7.90;99.90;;;;;;5123039;28;20205;-74
2023/10/16 10:07:19;;;;;;;;;;;8.00;99.90;;;;;;5121634;28;20121;-73
2023/10/16 10:09:47;;;;;;;;;;;8.20;99.90;;;;;;5118906;28;19920;-73
2023/10/16 10:12:23;;;;;;;;;;;8.30;99.90;;;;;;5123197;27;19991;-73
2023/10/16 10:15:01;;;;;;;;;;;8.30;99.90;;;;;;5123028;28;19916;-73
2023/10/16 10:17:29;;;;;;;;;;;8.50;99.90;;;;;;5120682;28;19927;-73
2023/10/16 10:19:58;;;;;;;;;;;8.60;99.90;;;;;;5119717;28;19928;-73
2023/10/16 10:22:34;;;;;;;;;;;8.70;99.90;;;;;;5121699;28;20196;-73
2023/10/16 10:25:14;;;;;;;;;;;8.70;99.90;;;;;;5119152;28;19931;-74
2023/10/16 10:27:42;;;;;;;;;;;8.70;99.90;;;;;;5121813;28;19924;-73
2023/10/16 10:30:14;;;;;;;;;;;8.80;99.90;;;;;;5117611;28;19920;-73
2023/10/16 10:32:42;;;;;;;;;;;8.90;99.90;;;;;;5119406;28;19961;-73
2023/10/16 10:35:21;;;;;;;;;;;9.10;99.90;;;;;;5120416;28;20160;-73
2023/10/16 10:37:48;;;;;;;;;;;9.30;99.90;;;;;;5123066;28;19973;-72
2023/10/16 10:40:21;;;;;;;;;;;9.40;99.90;;;;;;5121979;28;20095;-73
2023/10/16 10:42:53;;;;;;;;;;;9.50;99.90;;;;;;5122746;28;20114;-72
2023/10/16 10:45:33;;;;;;;;;;;9.60;99.90;;;;;;5120262;28;19973;-73
2023/10/16 10:48:06;;;;;;;;;;;9.70;99.90;;;;;;5119669;28;19928;-72
2023/10/16 10:50:34;;;;;;;;;;;9.80;99.90;;;;;;5124644;27;20239;-72
2023/10/16 10:53:03;;;;;;;;;;;9.90;99.90;;;;;;5119840;28;19920;-73
2023/10/16 10:55:30;;;;;;;;;;;10.00;99.90;;;;;;5119042;28;19926;-72
2023/10/16 10:57:58;;;;;;;;;;;10.10;99.90;;;;;;5123201;28;20221;-72
2023/10/16 11:00:43;;;;;;;;;;;10.30;99.90;;;;;;5118677;28;19920;-72
2023/10/16 11:03:22;;;;;;;;;;;10.50;99.90;;;;;;5116426;28;19920;-72
2023/10/16 11:05:49;;;;;;;;;;;10.50;99.90;;;;;;5120720;28;19919;-72
2023/10/16 11:08:19;;;;;;;;;;;10.50;99.90;;;;;;5119997;27;19983;-71
2023/10/16 11:10:47;;;;;;;;;;;10.70;99.90;;;;;;5120852;28;19926;-71
2023/10/16 11:13:15;;;;;;;;;;;10.70;99.90;;;;;;5119262;28;19926;-71
2023/10/16 11:15:53;;;;;;;;;;;10.80;99.90;;;;;;5123955;28;19926;-71
2023/10/16 11:18:22;;;;;;;;;;;11.00;99.90;;;;;;5115824;28;19924;-71
2023/10/16 11:20:49;;;;;;;;;;;11.10;99.90;;;;;;5118142;28;20175;-74
2023/10/16 11:23:17;;;;;;;;;;;11.30;99.90;;;;;;5125192;28;19919;-71
2023/10/16 11:25:45;;;;;;;;;;;11.50;99.90;;;;;;5118600;28;19979;-73
2023/10/16 11:28:17;;;;;;;;;;;11.60;99.90;;;;;;5120427;28;19962;-71
2023/10/16 11:30:45;;;;;;;;;;;11.70;99.90;;;;;;5118007;28;20392;-71
2023/10/16 11:33:12;;;;;;;;;;;11.80;99.90;;;;;;5121627;28;19958;-71
2023/10/16 11:35:46;;;;;;;;;;;12.00;99.90;;;;;;5123055;28;19928;-74
2023/10/16 11:38:19;;;;;;;;;;;12.10;99.90;;;;;;5116833;28;20009;-73
2023/10/16 11:40:47;;;;;;;;;;;12.10;99.90;;;;;;5113635;28;19920;-73
2023/10/16 11:43:18;;;;;;;;;;;12.20;99.90;;;;;;5119720;28;19987;-73
2023/10/16 11:45:53;;;;;;;;;;;12.20;99.90;;;;;;5124486;28;19919;-73
2023/10/16 11:48:25;;;;;;;;;;;12.30;99.90;;;;;;5118469;28;19987;-73
2023/10/16 11:50:58;;;;;;;;;;;12.10;99.90;;;;;;5125270;28;19951;-73
2023/10/16 11:53:28;;;;;;;;;;;12.10;99.90;;;;;;5122566;28;19920;-73
2023/10/16 11:55:56;;;;;;;;;;;12.00;99.90;;;;;;5118153;28;19919;-73
2023/10/16 11:58:23;;;;;;;;;;;11.90;99.90;;;;;;5118047;28;19920;-73
2023/10/16 12:00:54;;;;;;;;;;;11.80;99.90;;;;;;5116381;28;19926;-72
2023/10/16 12:03:23;;;;;;;;;;;11.80;99.90;;;;;;5117722;28;19927;-73
2023/10/16 12:05:50;;;;;;;;;;;12.00;99.90;;;;;;5120296;28;19919;-73
2023/10/16 12:08:21;;;;;;;;;;;12.20;99.90;;;;;;5123950;27;19983;-72
2023/10/16 12:10:48;;;;;;;;;;;12.30;99.90;;;;;;5118622;28;19924;-73
2023/10/16 12:13:15;;;;;;;;;;;12.30;99.90;;;;;;5123727;27;19951;-73
2023/10/16 12:15:43;;;;;;;;;;;12.10;99.90;;;;;;5121364;27;20164;-73
2023/10/16 12:18:12;;;;;;;;;;;11.80;99.90;;;;;;5120673;28;19928;-73
2023/10/16 12:20:39;;;;;;;;;;;11.50;99.90;;;;;;5126446;27;19920;-73
2023/10/16 12:23:05;;;;;;;;;;;11.30;99.90;;;;;;5117716;28;19987;-73
2023/10/16 12:25:34;;;;;;;;;;;11.10;99.90;;;;;;5122679;27;19919;-73
2023/10/16 12:28:02;;;;;;;;;;;11.10;99.90;;;;;;5117420;28;19924;-72
2023/10/16 12:30:28;;;;;;;;;;;11.10;99.90;;;;;;5124004;28;19920;-73
2023/10/16 12:32:55;;;;;;;;;;;11.10;99.90;;;;;;5120828;28;19926;-73
2023/10/16 12:35:22;;;;;;;;;;;11.10;99.90;;;;;;5120315;28;19951;-73
2023/10/16 12:37:49;;;;;;;;;;;11.20;99.90;;;;;;5118969;28;19920;-73
2023/10/16 12:40:34;;;;;;;;;;;11.10;99.90;;;;;;5119519;28;19951;-73
2023/10/16 12:43:02;;;;;;;;;;;11.10;99.90;;;;;;5113039;28;19924;-73
2023/10/16 12:45:32;;;;;;;;;;;11.30;99.90;;;;;;5120134;28;19970;-73
2023/10/16 12:47:58;;;;;;;;;;;11.50;99.90;;;;;;5115633;28;19928;-73
2023/10/16 12:50:26;;;;;;;;;;;11.50;99.90;;;;;;5120661;27;20002;-73
2023/10/16 12:52:54;;;;;;;;;;;11.50;99.90;;;;;;5116634;28;19926;-74
2023/10/16 12:55:22;;;;;;;;;;;11.60;99.90;;;;;;5116074;27;19934;-74
2023/10/16 12:57:49;;;;;;;;;;;11.80;99.90;;;;;;5114455;28;19924;-74
2023/10/16 13:00:18;;;;;;;;;;;12.00;99.90;;;;;;5124389;27;19920;-74
2023/10/16 13:02:45;;;;;;;;;;;12.10;99.90;;;;;;5119944;28;19919;-74
2023/10/16 13:05:13;;;;;;;;;;;12.30;99.90;;;;;;5116045;28;20184;-74
2023/10/16 13:07:41;;;;;;;;;;;12.60;99.90;;;;;;5116164;28;19928;-74
2023/10/16 13:10:09;;;;;;;;;;;12.70;99.90;;;;;;5121556;28;19920;-73
2023/10/16 13:12:39;;;;;;;;;;;12.80;99.90;;;;;;5113107;28;19927;-73
2023/10/16 13:15:08;;;;;;;;;;;13.00;99.90;;;;;;5119818;27;19920;-73
2023/10/16 13:17:37;;;;;;;;;;;13.00;99.90;;;;;;5123798;28;19919;-74
2023/10/16 13:20:05;;;;;;;;;;;13.10;99.90;;;;;;5117092;28;19951;-74
2023/10/16 13:22:32;;;;;;;;;;;13.20;99.90;;;;;;5122504;28;19932;-73
2023/10/16 13:24:59;;;;;;;;;;;13.20;99.90;;;;;;5119304;28;19919;-72
2023/10/16 13:27:27;;;;;;;;;;;13.30;99.90;;;;;;5129191;27;19927;-73
2023/10/16 13:29:54;;;;;;;;;;;13.40;99.90;;;;;;5123883;28;19920;-72
2023/10/16 13:32:21;;;;;;;;;;;13.40;99.90;;;;;;5127425;27;19973;-72
2023/10/16 13:34:50;;;;;;;;;;;13.50;99.90;;;;;;5124864;28;20167;-72
2023/10/16 13:37:18;;;;;;;;;;;13.50;99.90;;;;;;5128168;27;19986;-72
2023/10/16 13:39:45;;;;;;;;;;;13.40;99.90;;;;;;5121645;28;19920;-73
2023/10/16 13:42:14;;;;;;;;;;;13.20;99.90;;;;;;5123745;28;19987;-73
2023/10/16 13:44:42;;;;;;;;;;;13.10;99.90;;;;;;5123146;28;19950;-74
2023/10/16 13:47:09;;;;;;;;;;;13.10;99.90;;;;;;5119724;27;19920;-73
2023/10/16 13:49:36;;;;;;;;;;;13.00;99.90;;;;;;5123713;27;19920;-73
2023/10/16 13:52:07;;;;;;;;;;;13.20;99.90;;;;;;5120425;28;19926;-74
2023/10/16 13:54:34;;;;;;;;;;;13.30;99.90;;;;;;5127233;27;19926;-74
2023/10/16 13:57:02;;;;;;;;;;;13.30;99.90;;;;;;5121460;27;19919;-76
2023/10/16 13:59:29;;;;;;;;;;;13.20;99.90;;;;;;5120536;28;19927;-75
2023/10/16 14:01:56;;;;;;;;;;;13.10;99.90;;;;;;5123237;27;20221;-73
2023/10/16 14:04:25;;;;;;;;;;;13.30;99.90;;;;;;5125828;27;19920;-73
2023/10/16 14:06:52;;;;;;;;;;;13.50;99.90;;;;;;5120215;27;19919;-73
2023/10/16 14:09:27;;;;;;;;;;;13.50;99.90;;;;;;5122872;27;19962;-73
2023/10/16 14:11:54;;;;;;;;;;;13.50;99.90;;;;;;5125085;28;19939;-72
2023/10/16 14:14:21;;;;;;;;;;;13.60;99.90;;;;;;5127229;27;19981;-73
2023/10/16 14:16:49;;;;;;;;;;;13.60;99.90;;;;;;5124445;28;19926;-73
2023/10/16 14:19:17;;;;;;;;;;;13.50;99.90;;;;;;5121938;28;19969;-72
2023/10/16 14:21:44;;;;;;;;;;;13.50;99.90;;;;;;5119281;28;19954;-73
2023/10/16 14:24:17;;;;;;;;;;;13.50;99.90;;;;;;5124044;27;19924;-73
2023/10/16 14:26:49;;;;;;;;;;;13.60;99.90;;;;;;5118204;28;19935;-72
2023/10/16 14:29:16;;;;;;;;;;;13.70;99.90;;;;;;5124871;27;19932;-72
2023/10/16 14:31:46;;;;;;;;;;;13.60;99.90;;;;;;5117667;27;19956;-72
2023/10/16 14:34:17;;;;;;;;;;;13.60;99.90;;;;;;5128422;27;20214;-73
2023/10/16 14:36:45;;;;;;;;;;;13.60;99.90;;;;;;5124623;27;20232;-73
2023/10/16 14:39:12;;;;;;;;;;;13.60;99.90;;;;;;5123989;27;19932;-73
2023/10/16 14:41:41;;;;;;;;;;;13.50;99.90;;;;;;5119215;28;19920;-73
2023/10/16 14:44:09;;;;;;;;;;;13.40;99.90;;;;;;5117382;28;19958;-73
2023/10/16 14:46:37;;;;;;;;;;;13.20;99.90;;;;;;5118653;28;19923;-75
2023/10/16 14:49:04;;;;;;;;;;;13.10;99.90;;;;;;5121524;28;20428;-73
2023/10/16 14:51:31;;;;;;;;;;;13.10;99.90;;;;;;5124832;28;20151;-73
2023/10/16 14:53:57;;;;;;;;;;;13.00;99.90;;;;;;5117123;28;20206;-73
2023/10/16 14:56:25;;;;;;;;;;;13.00;99.90;;;;;;5118181;28;19926;-73
2023/10/16 14:58:51;;;;;;;;;;;12.90;99.90;;;;;;5120312;28;19985;-73
2023/10/16 15:01:21;;;;;;;;;;;12.60;99.90;;;;;;5124306;27;19959;-73
2023/10/16 15:03:48;;;;;;;;;;;12.50;99.90;;;;;;5117339;28;19972;-73
2023/10/16 15:06:15;;;;;;;;;;;12.40;99.90;;;;;;5115830;28;19952;-73
2023/10/16 15:08:43;;;;;;;;;;;12.30;99.90;;;;;;5119925;28;19959;-73
2023/10/16 15:11:11;;;;;;;;;;;12.10;99.90;;;;;;5116962;28;19978;-73
2023/10/16 15:13:38;;;;;;;;;;;11.90;99.90;;;;;;5117801;28;19920;-75
2023/10/16 15:16:06;;;;;;;;;;;11.80;99.90;;;;;;5117405;28;19920;-74
2023/10/16 15:18:34;;;;;;;;;;;11.50;99.90;;;;;;5122241;28;19939;-73
2023/10/16 15:21:01;;;;;;;;;;;11.40;99.90;;;;;;5116205;28;19951;-73
2023/10/16 15:23:29;;;;;;;;;;;11.20;99.90;;;;;;5122407;28;19927;-73
2023/10/16 15:25:57;;;;;;;;;;;11.10;99.90;;;;;;5118330;28;19926;-73
2023/10/16 15:28:24;;;;;;;;;;;10.90;99.90;;;;;;5117556;28;19987;-74
2023/10/16 15:30:50;;;;;;;;;;;10.70;99.90;;;;;;5121163;28;19945;-72
2023/10/16 15:33:17;;;;;;;;;;;10.60;99.90;;;;;;5117354;28;19927;-72
2023/10/16 15:35:48;;;;;;;;;;;10.60;99.90;;;;;;5116475;28;20007;-73
2023/10/16 15:38:16;;;;;;;;;;;10.50;99.90;;;;;;5124782;28;19961;-72
2023/10/16 15:40:45;;;;;;;;;;;10.50;99.90;;;;;;5117346;28;19935;-73
2023/10/16 15:43:12;;;;;;;;;;;10.40;99.90;;;;;;5116215;28;19920;-73
2023/10/16 15:45:42;;;;;;;;;;;10.30;99.90;;;;;;5118288;28;19920;-73
2023/10/16 15:48:09;;;;;;;;;;;10.20;99.90;;;;;;5120966;28;19926;-73
2023/10/16 15:50:36;;;;;;;;;;;10.20;99.90;;;;;;5120668;28;20215;-71
2023/10/16 15:53:05;;;;;;;;;;;10.10;99.90;;;;;;5119760;28;19920;-72
2023/10/16 15:55:32;;;;;;;;;;;10.00;99.90;;;;;;5119606;28;19926;-72
2023/10/16 15:57:59;;;;;;;;;;;9.90;99.90;;;;;;5118021;28;19920;-75
2023/10/16 16:00:26;;;;;;;;;;;10.00;99.90;;;;;;5118442;28;19962;-73